sensor_id;sensor_type;location;lat;lon;timestamp;P1;durP1;ratioP1;P2;durP2;ratioP2
15331;SDS011;7766;51.534;6.722;2022-10-16T00:01:04;4.43;;;2.87;;
15331;SDS011;7766;51.534;6.722;2022-10-16T00:02:06;3.60;;;2.30;;
15331;SDS011;7766;51.534;6.722;2022-10-16T00:03:08;7.43;;;2.87;;
15331;SDS011;7766;51.534;6.722;2022-10-16T00:04:10;4.63;;;2.10;;
15331;SDS011;7766;51.534;6.722;2022-10-16T00:05:12;6.53;;;2.30;;
15331;SDS011;7766;51.534;6.722;2022-10-16T00:06:13;5.60;;;2.40;;
15331;SDS011;7766;51.534;6.722;2022-10-16T00:07:16;4.03;;;2.03;;
15331;SDS011;7766;51.534;6.722;2022-10-16T00:08:17;3.43;;;2.00;;
15331;SDS011;7766;51.534;6.722;2022-10-16T00:09:18;3.40;;;2.03;;
15331;SDS011;7766;51.534;6.722;2022-10-16T00:10:19;6.20;;;2.10;;
15331;SDS011;7766;51.534;6.722;2022-10-16T00:11:21;6.07;;;1.83;;
15331;SDS011;7766;51.534;6.722;2022-10-16T00:12:33;3.53;;;2.10;;
15331;SDS011;7766;51.534;6.722;2022-10-16T00:13:34;2.47;;;2.07;;
15331;SDS011;7766;51.534;6.722;2022-10-16T00:14:37;5.37;;;2.00;;
15331;SDS011;7766;51.534;6.722;2022-10-16T00:15:40;3.70;;;1.90;;
15331;SDS011;7766;51.534;6.722;2022-10-16T00:16:43;8.87;;;2.40;;
15331;SDS011;7766;51.534;6.722;2022-10-16T00:17:44;5.67;;;2.00;;
15331;SDS011;7766;51.534;6.722;2022-10-16T00:18:45;4.27;;;2.00;;
15331;SDS011;7766;51.534;6.722;2022-10-16T00:19:46;5.50;;;2.53;;
15331;SDS011;7766;51.534;6.722;2022-10-16T00:20:47;3.70;;;1.70;;
15331;SDS011;7766;51.534;6.722;2022-10-16T00:21:48;3.70;;;2.27;;
15331;SDS011;7766;51.534;6.722;2022-10-16T00:22:49;5.77;;;2.20;;
15331;SDS011;7766;51.534;6.722;2022-10-16T00:23:54;5.37;;;2.30;;
15331;SDS011;7766;51.534;6.722;2022-10-16T00:24:59;3.03;;;2.27;;
15331;SDS011;7766;51.534;6.722;2022-10-16T00:26:01;4.93;;;2.10;;
15331;SDS011;7766;51.534;6.722;2022-10-16T00:27:04;4.43;;;1.93;;
15331;SDS011;7766;51.534;6.722;2022-10-16T00:28:05;4.07;;;2.10;;
15331;SDS011;7766;51.534;6.722;2022-10-16T00:29:07;3.20;;;2.30;;
15331;SDS011;7766;51.534;6.722;2022-10-16T00:30:07;5.17;;;2.10;;
15331;SDS011;7766;51.534;6.722;2022-10-16T00:31:09;4.80;;;2.23;;
15331;SDS011;7766;51.534;6.722;2022-10-16T00:32:12;4.33;;;2.60;;
15331;SDS011;7766;51.534;6.722;2022-10-16T00:33:13;3.37;;;1.77;;
15331;SDS011;7766;51.534;6.722;2022-10-16T00:34:13;2.80;;;1.80;;
15331;SDS011;7766;51.534;6.722;2022-10-16T00:35:14;3.20;;;2.23;;
15331;SDS011;7766;51.534;6.722;2022-10-16T00:36:17;3.67;;;2.07;;
15331;SDS011;7766;51.534;6.722;2022-10-16T00:37:19;2.83;;;2.07;;
15331;SDS011;7766;51.534;6.722;2022-10-16T00:38:20;3.77;;;2.17;;
15331;SDS011;7766;51.534;6.722;2022-10-16T00:39:21;5.23;;;2.23;;
15331;SDS011;7766;51.534;6.722;2022-10-16T00:40:23;4.00;;;2.20;;
15331;SDS011;7766;51.534;6.722;2022-10-16T00:41:24;3.73;;;2.23;;
15331;SDS011;7766;51.534;6.722;2022-10-16T00:42:26;12.43;;;7.20;;
15331;SDS011;7766;51.534;6.722;2022-10-16T00:43:41;14.57;;;7.07;;
15331;SDS011;7766;51.534;6.722;2022-10-16T00:44:54;5.30;;;3.13;;
15331;SDS011;7766;51.534;6.722;2022-10-16T00:45:57;6.67;;;3.43;;
15331;SDS011;7766;51.534;6.722;2022-10-16T00:46:59;9.53;;;6.03;;
15331;SDS011;7766;51.534;6.722;2022-10-16T00:48:00;19.53;;;13.77;;
15331;SDS011;7766;51.534;6.722;2022-10-16T00:49:04;10.13;;;5.00;;
15331;SDS011;7766;51.534;6.722;2022-10-16T00:50:18;6.27;;;2.87;;
15331;SDS011;7766;51.534;6.722;2022-10-16T00:51:25;5.30;;;3.03;;
15331;SDS011;7766;51.534;6.722;2022-10-16T00:52:32;5.50;;;2.30;;
15331;SDS011;7766;51.534;6.722;2022-10-16T00:53:34;2.43;;;2.00;;
15331;SDS011;7766;51.534;6.722;2022-10-16T00:54:36;4.77;;;2.17;;
15331;SDS011;7766;51.534;6.722;2022-10-16T00:55:37;4.83;;;2.27;;
15331;SDS011;7766;51.534;6.722;2022-10-16T00:56:38;3.97;;;2.53;;
15331;SDS011;7766;51.534;6.722;2022-10-16T00:57:40;4.10;;;2.10;;
15331;SDS011;7766;51.534;6.722;2022-10-16T00:58:43;5.40;;;2.30;;
15331;SDS011;7766;51.534;6.722;2022-10-16T00:59:44;3.50;;;2.00;;
15331;SDS011;7766;51.534;6.722;2022-10-16T01:00:45;6.37;;;2.53;;
15331;SDS011;7766;51.534;6.722;2022-10-16T01:01:46;5.73;;;2.00;;
15331;SDS011;7766;51.534;6.722;2022-10-16T01:02:54;3.70;;;2.20;;
15331;SDS011;7766;51.534;6.722;2022-10-16T01:03:57;5.57;;;2.60;;
15331;SDS011;7766;51.534;6.722;2022-10-16T01:04:58;2.43;;;1.93;;
15331;SDS011;7766;51.534;6.722;2022-10-16T01:06:10;4.83;;;2.23;;
15331;SDS011;7766;51.534;6.722;2022-10-16T01:11:31;6.17;;;2.30;;
15331;SDS011;7766;51.534;6.722;2022-10-16T01:12:41;2.93;;;2.10;;
15331;SDS011;7766;51.534;6.722;2022-10-16T01:14:00;2.73;;;1.80;;
15331;SDS011;7766;51.534;6.722;2022-10-16T01:15:18;5.83;;;1.90;;
15331;SDS011;7766;51.534;6.722;2022-10-16T01:16:35;5.90;;;2.00;;
15331;SDS011;7766;51.534;6.722;2022-10-16T01:18:11;4.23;;;2.30;;
15331;SDS011;7766;51.534;6.722;2022-10-16T01:20:54;5.93;;;2.07;;
15331;SDS011;7766;51.534;6.722;2022-10-16T01:22:13;6.30;;;2.13;;
15331;SDS011;7766;51.534;6.722;2022-10-16T01:23:19;5.23;;;2.10;;
15331;SDS011;7766;51.534;6.722;2022-10-16T01:24:30;4.07;;;2.53;;
15331;SDS011;7766;51.534;6.722;2022-10-16T01:25:52;3.00;;;2.30;;
15331;SDS011;7766;51.534;6.722;2022-10-16T01:28:32;6.20;;;2.37;;
15331;SDS011;7766;51.534;6.722;2022-10-16T01:29:48;4.00;;;1.87;;
15331;SDS011;7766;51.534;6.722;2022-10-16T01:30:57;6.20;;;1.90;;
15331;SDS011;7766;51.534;6.722;2022-10-16T01:32:01;6.03;;;2.57;;
15331;SDS011;7766;51.534;6.722;2022-10-16T01:33:20;4.50;;;2.03;;
15331;SDS011;7766;51.534;6.722;2022-10-16T01:34:35;3.37;;;2.00;;
15331;SDS011;7766;51.534;6.722;2022-10-16T01:35:56;4.70;;;2.20;;
15331;SDS011;7766;51.534;6.722;2022-10-16T01:37:07;6.50;;;2.23;;
15331;SDS011;7766;51.534;6.722;2022-10-16T01:38:21;2.40;;;1.67;;
15331;SDS011;7766;51.534;6.722;2022-10-16T01:39:35;3.23;;;2.20;;
15331;SDS011;7766;51.534;6.722;2022-10-16T01:40:41;4.53;;;2.10;;
15331;SDS011;7766;51.534;6.722;2022-10-16T01:41:48;3.33;;;2.00;;
15331;SDS011;7766;51.534;6.722;2022-10-16T01:42:58;3.80;;;2.13;;
15331;SDS011;7766;51.534;6.722;2022-10-16T01:44:22;2.50;;;1.87;;
15331;SDS011;7766;51.534;6.722;2022-10-16T01:45:28;2.83;;;2.10;;
15331;SDS011;7766;51.534;6.722;2022-10-16T01:46:33;2.70;;;2.20;;
15331;SDS011;7766;51.534;6.722;2022-10-16T01:47:36;5.70;;;2.33;;
15331;SDS011;7766;51.534;6.722;2022-10-16T01:48:38;4.00;;;1.73;;
15331;SDS011;7766;51.534;6.722;2022-10-16T01:49:40;2.77;;;1.97;;
15331;SDS011;7766;51.534;6.722;2022-10-16T01:50:44;4.07;;;2.27;;
15331;SDS011;7766;51.534;6.722;2022-10-16T01:51:50;5.87;;;1.80;;
15331;SDS011;7766;51.534;6.722;2022-10-16T01:52:55;4.43;;;1.80;;
15331;SDS011;7766;51.534;6.722;2022-10-16T01:53:58;2.60;;;1.93;;
15331;SDS011;7766;51.534;6.722;2022-10-16T01:55:03;4.87;;;2.00;;
15331;SDS011;7766;51.534;6.722;2022-10-16T01:56:09;5.50;;;2.00;;
15331;SDS011;7766;51.534;6.722;2022-10-16T01:57:12;4.23;;;2.53;;
15331;SDS011;7766;51.534;6.722;2022-10-16T01:58:14;4.23;;;1.83;;
15331;SDS011;7766;51.534;6.722;2022-10-16T01:59:16;4.00;;;2.23;;
15331;SDS011;7766;51.534;6.722;2022-10-16T02:00:21;4.33;;;2.67;;
15331;SDS011;7766;51.534;6.722;2022-10-16T02:01:24;3.93;;;2.07;;
15331;SDS011;7766;51.534;6.722;2022-10-16T02:02:29;2.73;;;1.97;;
15331;SDS011;7766;51.534;6.722;2022-10-16T02:03:31;3.73;;;1.93;;
15331;SDS011;7766;51.534;6.722;2022-10-16T02:04:55;2.30;;;1.80;;
15331;SDS011;7766;51.534;6.722;2022-10-16T02:06:18;3.13;;;2.00;;
15331;SDS011;7766;51.534;6.722;2022-10-16T02:07:19;3.17;;;1.90;;
15331;SDS011;7766;51.534;6.722;2022-10-16T02:08:21;3.23;;;1.90;;
15331;SDS011;7766;51.534;6.722;2022-10-16T02:09:24;4.47;;;2.20;;
15331;SDS011;7766;51.534;6.722;2022-10-16T02:10:25;4.00;;;1.90;;
15331;SDS011;7766;51.534;6.722;2022-10-16T02:11:30;3.57;;;1.70;;
15331;SDS011;7766;51.534;6.722;2022-10-16T02:12:32;3.73;;;2.17;;
15331;SDS011;7766;51.534;6.722;2022-10-16T02:13:41;4.77;;;2.00;;
15331;SDS011;7766;51.534;6.722;2022-10-16T02:14:48;7.20;;;2.30;;
15331;SDS011;7766;51.534;6.722;2022-10-16T02:15:49;3.60;;;2.30;;
15331;SDS011;7766;51.534;6.722;2022-10-16T02:16:50;3.90;;;2.17;;
15331;SDS011;7766;51.534;6.722;2022-10-16T02:17:51;8.30;;;2.73;;
15331;SDS011;7766;51.534;6.722;2022-10-16T02:18:52;5.40;;;2.60;;
15331;SDS011;7766;51.534;6.722;2022-10-16T02:19:53;6.60;;;2.90;;
15331;SDS011;7766;51.534;6.722;2022-10-16T02:21:04;6.47;;;3.17;;
15331;SDS011;7766;51.534;6.722;2022-10-16T02:22:17;5.47;;;2.87;;
15331;SDS011;7766;51.534;6.722;2022-10-16T02:23:36;5.83;;;2.57;;
15331;SDS011;7766;51.534;6.722;2022-10-16T02:25:51;9.53;;;2.90;;
15331;SDS011;7766;51.534;6.722;2022-10-16T02:27:10;5.47;;;2.50;;
15331;SDS011;7766;51.534;6.722;2022-10-16T02:29:19;4.90;;;2.20;;
15331;SDS011;7766;51.534;6.722;2022-10-16T02:30:43;3.73;;;1.73;;
15331;SDS011;7766;51.534;6.722;2022-10-16T02:31:50;3.50;;;1.63;;
15331;SDS011;7766;51.534;6.722;2022-10-16T02:32:57;3.57;;;1.63;;
15331;SDS011;7766;51.534;6.722;2022-10-16T02:34:02;5.07;;;1.90;;
15331;SDS011;7766;51.534;6.722;2022-10-16T02:35:06;5.07;;;1.50;;
15331;SDS011;7766;51.534;6.722;2022-10-16T02:36:08;2.97;;;1.70;;
15331;SDS011;7766;51.534;6.722;2022-10-16T02:37:10;4.70;;;1.50;;
15331;SDS011;7766;51.534;6.722;2022-10-16T02:38:12;3.33;;;1.80;;
15331;SDS011;7766;51.534;6.722;2022-10-16T02:39:14;4.67;;;1.60;;
15331;SDS011;7766;51.534;6.722;2022-10-16T02:40:17;4.87;;;1.47;;
15331;SDS011;7766;51.534;6.722;2022-10-16T02:41:20;3.40;;;1.60;;
15331;SDS011;7766;51.534;6.722;2022-10-16T02:42:24;2.83;;;1.53;;
15331;SDS011;7766;51.534;6.722;2022-10-16T02:43:35;2.93;;;1.60;;
15331;SDS011;7766;51.534;6.722;2022-10-16T02:44:36;5.23;;;1.80;;
15331;SDS011;7766;51.534;6.722;2022-10-16T02:45:37;1.80;;;1.57;;
15331;SDS011;7766;51.534;6.722;2022-10-16T02:46:37;4.20;;;1.67;;
15331;SDS011;7766;51.534;6.722;2022-10-16T02:47:38;2.13;;;1.20;;
15331;SDS011;7766;51.534;6.722;2022-10-16T02:48:39;5.00;;;1.77;;
15331;SDS011;7766;51.534;6.722;2022-10-16T02:49:40;3.07;;;1.20;;
15331;SDS011;7766;51.534;6.722;2022-10-16T02:50:41;1.87;;;1.43;;
15331;SDS011;7766;51.534;6.722;2022-10-16T02:51:42;3.57;;;1.60;;
15331;SDS011;7766;51.534;6.722;2022-10-16T02:52:43;3.30;;;1.63;;
15331;SDS011;7766;51.534;6.722;2022-10-16T02:53:44;2.27;;;1.20;;
15331;SDS011;7766;51.534;6.722;2022-10-16T02:54:45;2.40;;;1.27;;
15331;SDS011;7766;51.534;6.722;2022-10-16T02:55:46;3.20;;;1.93;;
15331;SDS011;7766;51.534;6.722;2022-10-16T02:56:47;3.43;;;1.30;;
15331;SDS011;7766;51.534;6.722;2022-10-16T02:57:48;3.77;;;1.40;;
15331;SDS011;7766;51.534;6.722;2022-10-16T02:58:49;2.20;;;1.40;;
15331;SDS011;7766;51.534;6.722;2022-10-16T02:59:50;3.47;;;1.57;;
15331;SDS011;7766;51.534;6.722;2022-10-16T03:00:51;4.07;;;1.13;;
15331;SDS011;7766;51.534;6.722;2022-10-16T03:01:52;3.67;;;1.60;;
15331;SDS011;7766;51.534;6.722;2022-10-16T03:02:53;2.13;;;1.43;;
15331;SDS011;7766;51.534;6.722;2022-10-16T03:03:54;1.87;;;1.33;;
15331;SDS011;7766;51.534;6.722;2022-10-16T03:04:55;2.70;;;1.23;;
15331;SDS011;7766;51.534;6.722;2022-10-16T03:05:56;3.13;;;1.27;;
15331;SDS011;7766;51.534;6.722;2022-10-16T03:06:57;2.73;;;1.53;;
15331;SDS011;7766;51.534;6.722;2022-10-16T03:07:57;4.77;;;1.20;;
15331;SDS011;7766;51.534;6.722;2022-10-16T03:09:00;1.37;;;1.27;;
15331;SDS011;7766;51.534;6.722;2022-10-16T03:10:01;2.40;;;1.40;;
15331;SDS011;7766;51.534;6.722;2022-10-16T03:11:03;2.20;;;1.10;;
15331;SDS011;7766;51.534;6.722;2022-10-16T03:12:04;3.10;;;1.47;;
15331;SDS011;7766;51.534;6.722;2022-10-16T03:13:05;1.77;;;1.23;;
15331;SDS011;7766;51.534;6.722;2022-10-16T03:14:06;2.93;;;1.33;;
15331;SDS011;7766;51.534;6.722;2022-10-16T03:15:07;2.43;;;1.30;;
15331;SDS011;7766;51.534;6.722;2022-10-16T03:16:08;2.20;;;1.20;;
15331;SDS011;7766;51.534;6.722;2022-10-16T03:17:10;2.07;;;1.17;;
15331;SDS011;7766;51.534;6.722;2022-10-16T03:18:11;2.93;;;1.10;;
15331;SDS011;7766;51.534;6.722;2022-10-16T03:19:12;5.30;;;1.20;;
15331;SDS011;7766;51.534;6.722;2022-10-16T03:20:13;1.50;;;1.17;;
15331;SDS011;7766;51.534;6.722;2022-10-16T03:21:14;3.20;;;1.30;;
15331;SDS011;7766;51.534;6.722;2022-10-16T03:22:15;2.37;;;1.37;;
15331;SDS011;7766;51.534;6.722;2022-10-16T03:23:16;2.53;;;1.40;;
15331;SDS011;7766;51.534;6.722;2022-10-16T03:24:17;1.27;;;0.90;;
15331;SDS011;7766;51.534;6.722;2022-10-16T03:25:18;2.97;;;1.10;;
15331;SDS011;7766;51.534;6.722;2022-10-16T03:26:19;5.00;;;1.23;;
15331;SDS011;7766;51.534;6.722;2022-10-16T03:27:20;4.50;;;1.37;;
15331;SDS011;7766;51.534;6.722;2022-10-16T03:28:21;1.60;;;1.20;;
15331;SDS011;7766;51.534;6.722;2022-10-16T03:29:22;3.50;;;1.20;;
15331;SDS011;7766;51.534;6.722;2022-10-16T03:30:25;3.77;;;1.30;;
15331;SDS011;7766;51.534;6.722;2022-10-16T03:31:26;2.47;;;1.20;;
15331;SDS011;7766;51.534;6.722;2022-10-16T03:32:27;1.27;;;1.00;;
15331;SDS011;7766;51.534;6.722;2022-10-16T03:33:28;2.60;;;1.33;;
15331;SDS011;7766;51.534;6.722;2022-10-16T03:34:29;2.20;;;1.60;;
15331;SDS011;7766;51.534;6.722;2022-10-16T03:35:30;3.47;;;1.20;;
15331;SDS011;7766;51.534;6.722;2022-10-16T03:36:33;2.77;;;1.00;;
15331;SDS011;7766;51.534;6.722;2022-10-16T03:37:34;1.97;;;1.33;;
15331;SDS011;7766;51.534;6.722;2022-10-16T03:38:36;1.83;;;1.20;;
15331;SDS011;7766;51.534;6.722;2022-10-16T03:39:37;2.00;;;1.00;;
15331;SDS011;7766;51.534;6.722;2022-10-16T03:40:38;3.63;;;1.10;;
15331;SDS011;7766;51.534;6.722;2022-10-16T03:41:39;3.60;;;1.20;;
15331;SDS011;7766;51.534;6.722;2022-10-16T03:42:41;2.73;;;1.10;;
15331;SDS011;7766;51.534;6.722;2022-10-16T03:43:42;2.10;;;1.00;;
15331;SDS011;7766;51.534;6.722;2022-10-16T03:44:43;1.63;;;1.10;;
15331;SDS011;7766;51.534;6.722;2022-10-16T03:45:44;3.33;;;1.57;;
15331;SDS011;7766;51.534;6.722;2022-10-16T03:46:45;3.47;;;1.13;;
15331;SDS011;7766;51.534;6.722;2022-10-16T03:47:46;4.03;;;1.40;;
15331;SDS011;7766;51.534;6.722;2022-10-16T03:48:47;3.50;;;1.30;;
15331;SDS011;7766;51.534;6.722;2022-10-16T03:49:48;2.17;;;1.30;;
15331;SDS011;7766;51.534;6.722;2022-10-16T03:50:49;1.93;;;1.20;;
15331;SDS011;7766;51.534;6.722;2022-10-16T03:51:51;1.80;;;1.10;;
15331;SDS011;7766;51.534;6.722;2022-10-16T03:52:52;2.10;;;1.00;;
15331;SDS011;7766;51.534;6.722;2022-10-16T03:53:53;1.30;;;1.13;;
15331;SDS011;7766;51.534;6.722;2022-10-16T03:54:54;1.80;;;1.03;;
15331;SDS011;7766;51.534;6.722;2022-10-16T03:55:55;3.97;;;1.10;;
15331;SDS011;7766;51.534;6.722;2022-10-16T03:56:56;3.50;;;1.20;;
15331;SDS011;7766;51.534;6.722;2022-10-16T03:57:57;4.70;;;1.17;;
15331;SDS011;7766;51.534;6.722;2022-10-16T03:58:58;2.90;;;1.23;;
15331;SDS011;7766;51.534;6.722;2022-10-16T03:59:59;4.90;;;1.30;;
15331;SDS011;7766;51.534;6.722;2022-10-16T04:01:00;2.83;;;1.10;;
15331;SDS011;7766;51.534;6.722;2022-10-16T04:02:01;1.43;;;0.83;;
15331;SDS011;7766;51.534;6.722;2022-10-16T04:03:02;3.03;;;1.00;;
15331;SDS011;7766;51.534;6.722;2022-10-16T04:04:03;1.50;;;1.07;;
15331;SDS011;7766;51.534;6.722;2022-10-16T04:05:05;1.80;;;1.07;;
15331;SDS011;7766;51.534;6.722;2022-10-16T04:06:06;2.27;;;1.00;;
15331;SDS011;7766;51.534;6.722;2022-10-16T04:07:07;2.10;;;1.10;;
15331;SDS011;7766;51.534;6.722;2022-10-16T04:08:08;2.83;;;1.10;;
15331;SDS011;7766;51.534;6.722;2022-10-16T04:09:09;1.07;;;0.80;;
15331;SDS011;7766;51.534;6.722;2022-10-16T04:10:10;1.87;;;1.00;;
15331;SDS011;7766;51.534;6.722;2022-10-16T04:11:11;1.90;;;1.00;;
15331;SDS011;7766;51.534;6.722;2022-10-16T04:12:12;3.60;;;1.20;;
15331;SDS011;7766;51.534;6.722;2022-10-16T04:13:14;1.83;;;1.00;;
15331;SDS011;7766;51.534;6.722;2022-10-16T04:14:16;3.50;;;1.07;;
15331;SDS011;7766;51.534;6.722;2022-10-16T04:15:17;2.13;;;1.10;;
15331;SDS011;7766;51.534;6.722;2022-10-16T04:16:18;1.37;;;0.83;;
15331;SDS011;7766;51.534;6.722;2022-10-16T04:17:19;1.83;;;0.90;;
15331;SDS011;7766;51.534;6.722;2022-10-16T04:18:20;3.07;;;1.40;;
15331;SDS011;7766;51.534;6.722;2022-10-16T04:19:21;2.03;;;0.90;;
15331;SDS011;7766;51.534;6.722;2022-10-16T04:20:22;2.40;;;1.00;;
15331;SDS011;7766;51.534;6.722;2022-10-16T04:21:23;1.30;;;0.80;;
15331;SDS011;7766;51.534;6.722;2022-10-16T04:22:24;1.50;;;0.70;;
15331;SDS011;7766;51.534;6.722;2022-10-16T04:23:25;1.40;;;1.00;;
15331;SDS011;7766;51.534;6.722;2022-10-16T04:24:26;1.17;;;1.07;;
15331;SDS011;7766;51.534;6.722;2022-10-16T04:25:27;1.27;;;0.90;;
15331;SDS011;7766;51.534;6.722;2022-10-16T04:26:28;1.40;;;0.90;;
15331;SDS011;7766;51.534;6.722;2022-10-16T04:27:30;1.77;;;0.80;;
15331;SDS011;7766;51.534;6.722;2022-10-16T04:28:31;1.30;;;0.90;;
15331;SDS011;7766;51.534;6.722;2022-10-16T04:29:32;2.60;;;0.80;;
15331;SDS011;7766;51.534;6.722;2022-10-16T04:30:33;2.57;;;0.80;;
15331;SDS011;7766;51.534;6.722;2022-10-16T04:31:34;0.70;;;0.60;;
15331;SDS011;7766;51.534;6.722;2022-10-16T04:32:34;3.43;;;0.97;;
15331;SDS011;7766;51.534;6.722;2022-10-16T04:33:35;0.70;;;0.70;;
15331;SDS011;7766;51.534;6.722;2022-10-16T04:34:36;2.10;;;0.80;;
15331;SDS011;7766;51.534;6.722;2022-10-16T04:35:40;1.20;;;1.00;;
15331;SDS011;7766;51.534;6.722;2022-10-16T04:36:41;1.93;;;0.80;;
15331;SDS011;7766;51.534;6.722;2022-10-16T04:37:42;0.87;;;0.70;;
15331;SDS011;7766;51.534;6.722;2022-10-16T04:38:43;1.07;;;0.97;;
15331;SDS011;7766;51.534;6.722;2022-10-16T04:39:44;1.23;;;0.80;;
15331;SDS011;7766;51.534;6.722;2022-10-16T04:40:44;2.33;;;1.00;;
15331;SDS011;7766;51.534;6.722;2022-10-16T04:41:46;1.10;;;0.80;;
15331;SDS011;7766;51.534;6.722;2022-10-16T04:42:46;1.07;;;0.80;;
15331;SDS011;7766;51.534;6.722;2022-10-16T04:43:47;1.73;;;0.73;;
15331;SDS011;7766;51.534;6.722;2022-10-16T04:44:48;3.43;;;0.93;;
15331;SDS011;7766;51.534;6.722;2022-10-16T04:45:49;1.33;;;1.00;;
15331;SDS011;7766;51.534;6.722;2022-10-16T04:46:54;1.00;;;0.80;;
15331;SDS011;7766;51.534;6.722;2022-10-16T04:47:58;2.60;;;1.13;;
15331;SDS011;7766;51.534;6.722;2022-10-16T04:48:59;1.40;;;0.97;;
15331;SDS011;7766;51.534;6.722;2022-10-16T04:50:00;3.27;;;0.87;;
15331;SDS011;7766;51.534;6.722;2022-10-16T04:51:02;0.90;;;0.90;;
15331;SDS011;7766;51.534;6.722;2022-10-16T04:52:03;2.50;;;0.83;;
15331;SDS011;7766;51.534;6.722;2022-10-16T04:53:05;0.80;;;0.73;;
15331;SDS011;7766;51.534;6.722;2022-10-16T04:54:06;1.20;;;0.80;;
15331;SDS011;7766;51.534;6.722;2022-10-16T04:55:08;2.73;;;0.80;;
15331;SDS011;7766;51.534;6.722;2022-10-16T04:56:09;2.33;;;1.10;;
15331;SDS011;7766;51.534;6.722;2022-10-16T04:57:11;2.73;;;1.00;;
15331;SDS011;7766;51.534;6.722;2022-10-16T04:58:12;1.60;;;0.87;;
15331;SDS011;7766;51.534;6.722;2022-10-16T04:59:13;2.20;;;0.80;;
15331;SDS011;7766;51.534;6.722;2022-10-16T05:00:15;0.73;;;0.57;;
15331;SDS011;7766;51.534;6.722;2022-10-16T05:01:16;2.63;;;0.90;;
15331;SDS011;7766;51.534;6.722;2022-10-16T05:02:16;1.50;;;0.73;;
15331;SDS011;7766;51.534;6.722;2022-10-16T05:03:17;2.10;;;1.00;;
15331;SDS011;7766;51.534;6.722;2022-10-16T05:04:19;1.00;;;0.90;;
15331;SDS011;7766;51.534;6.722;2022-10-16T05:05:19;2.80;;;1.40;;
15331;SDS011;7766;51.534;6.722;2022-10-16T05:06:20;3.40;;;1.17;;
15331;SDS011;7766;51.534;6.722;2022-10-16T05:07:21;5.57;;;1.47;;
15331;SDS011;7766;51.534;6.722;2022-10-16T05:08:22;2.30;;;0.93;;
15331;SDS011;7766;51.534;6.722;2022-10-16T05:09:23;2.07;;;1.20;;
15331;SDS011;7766;51.534;6.722;2022-10-16T05:10:24;2.93;;;1.43;;
15331;SDS011;7766;51.534;6.722;2022-10-16T05:11:26;3.13;;;1.00;;
15331;SDS011;7766;51.534;6.722;2022-10-16T05:12:27;3.53;;;1.27;;
15331;SDS011;7766;51.534;6.722;2022-10-16T05:13:28;2.37;;;1.20;;
15331;SDS011;7766;51.534;6.722;2022-10-16T05:14:29;1.63;;;1.20;;
15331;SDS011;7766;51.534;6.722;2022-10-16T05:15:30;2.00;;;1.07;;
15331;SDS011;7766;51.534;6.722;2022-10-16T05:16:31;1.10;;;0.90;;
15331;SDS011;7766;51.534;6.722;2022-10-16T05:17:32;3.53;;;1.10;;
15331;SDS011;7766;51.534;6.722;2022-10-16T05:18:33;2.77;;;1.13;;
15331;SDS011;7766;51.534;6.722;2022-10-16T05:19:34;1.80;;;1.07;;
15331;SDS011;7766;51.534;6.722;2022-10-16T05:20:35;1.87;;;1.07;;
15331;SDS011;7766;51.534;6.722;2022-10-16T05:21:36;1.97;;;0.90;;
15331;SDS011;7766;51.534;6.722;2022-10-16T05:22:37;2.50;;;1.30;;
15331;SDS011;7766;51.534;6.722;2022-10-16T05:23:37;3.40;;;1.60;;
15331;SDS011;7766;51.534;6.722;2022-10-16T05:24:38;1.13;;;1.03;;
15331;SDS011;7766;51.534;6.722;2022-10-16T05:25:39;2.57;;;1.03;;
15331;SDS011;7766;51.534;6.722;2022-10-16T05:26:40;2.33;;;1.00;;
15331;SDS011;7766;51.534;6.722;2022-10-16T05:27:41;4.50;;;1.23;;
15331;SDS011;7766;51.534;6.722;2022-10-16T05:28:42;2.83;;;1.13;;
15331;SDS011;7766;51.534;6.722;2022-10-16T05:29:43;1.87;;;1.10;;
15331;SDS011;7766;51.534;6.722;2022-10-16T05:30:46;1.63;;;1.00;;
15331;SDS011;7766;51.534;6.722;2022-10-16T05:31:50;1.63;;;1.00;;
15331;SDS011;7766;51.534;6.722;2022-10-16T05:32:54;1.63;;;0.80;;
15331;SDS011;7766;51.534;6.722;2022-10-16T05:34:01;1.90;;;0.77;;
15331;SDS011;7766;51.534;6.722;2022-10-16T05:35:02;2.00;;;0.87;;
15331;SDS011;7766;51.534;6.722;2022-10-16T05:36:04;3.60;;;1.00;;
15331;SDS011;7766;51.534;6.722;2022-10-16T05:37:07;3.07;;;1.00;;
15331;SDS011;7766;51.534;6.722;2022-10-16T05:38:08;2.03;;;0.97;;
15331;SDS011;7766;51.534;6.722;2022-10-16T05:39:09;3.30;;;1.00;;
15331;SDS011;7766;51.534;6.722;2022-10-16T05:40:10;0.90;;;0.90;;
15331;SDS011;7766;51.534;6.722;2022-10-16T05:41:12;1.27;;;0.87;;
15331;SDS011;7766;51.534;6.722;2022-10-16T05:42:13;2.10;;;1.17;;
15331;SDS011;7766;51.534;6.722;2022-10-16T05:43:14;2.47;;;0.93;;
15331;SDS011;7766;51.534;6.722;2022-10-16T05:44:16;1.70;;;0.90;;
15331;SDS011;7766;51.534;6.722;2022-10-16T05:45:16;1.73;;;0.73;;
15331;SDS011;7766;51.534;6.722;2022-10-16T05:46:18;2.33;;;0.83;;
15331;SDS011;7766;51.534;6.722;2022-10-16T05:47:19;2.60;;;1.10;;
15331;SDS011;7766;51.534;6.722;2022-10-16T05:48:20;2.17;;;1.03;;
15331;SDS011;7766;51.534;6.722;2022-10-16T05:49:22;1.00;;;0.80;;
15331;SDS011;7766;51.534;6.722;2022-10-16T05:50:23;4.67;;;1.10;;
15331;SDS011;7766;51.534;6.722;2022-10-16T05:51:24;3.20;;;1.00;;
15331;SDS011;7766;51.534;6.722;2022-10-16T05:52:26;2.03;;;0.90;;
15331;SDS011;7766;51.534;6.722;2022-10-16T05:53:28;1.60;;;1.00;;
15331;SDS011;7766;51.534;6.722;2022-10-16T05:54:30;2.90;;;1.20;;
15331;SDS011;7766;51.534;6.722;2022-10-16T05:55:31;3.30;;;1.37;;
15331;SDS011;7766;51.534;6.722;2022-10-16T05:56:32;4.00;;;1.10;;
15331;SDS011;7766;51.534;6.722;2022-10-16T05:57:33;3.43;;;1.13;;
15331;SDS011;7766;51.534;6.722;2022-10-16T05:58:35;3.13;;;1.13;;
15331;SDS011;7766;51.534;6.722;2022-10-16T05:59:37;3.17;;;1.10;;
15331;SDS011;7766;51.534;6.722;2022-10-16T06:00:38;1.60;;;0.80;;
15331;SDS011;7766;51.534;6.722;2022-10-16T06:01:39;2.27;;;1.00;;
15331;SDS011;7766;51.534;6.722;2022-10-16T06:02:40;5.10;;;1.37;;
15331;SDS011;7766;51.534;6.722;2022-10-16T06:03:41;3.20;;;1.10;;
15331;SDS011;7766;51.534;6.722;2022-10-16T06:04:42;2.57;;;1.00;;
15331;SDS011;7766;51.534;6.722;2022-10-16T06:05:43;2.40;;;1.33;;
15331;SDS011;7766;51.534;6.722;2022-10-16T06:06:44;1.60;;;1.10;;
15331;SDS011;7766;51.534;6.722;2022-10-16T06:07:45;2.07;;;0.80;;
15331;SDS011;7766;51.534;6.722;2022-10-16T06:08:47;2.00;;;0.83;;
15331;SDS011;7766;51.534;6.722;2022-10-16T06:09:52;2.23;;;1.00;;
15331;SDS011;7766;51.534;6.722;2022-10-16T06:11:06;2.30;;;0.90;;
15331;SDS011;7766;51.534;6.722;2022-10-16T06:12:09;2.97;;;1.17;;
15331;SDS011;7766;51.534;6.722;2022-10-16T06:13:11;2.20;;;1.03;;
15331;SDS011;7766;51.534;6.722;2022-10-16T06:14:12;2.60;;;1.20;;
15331;SDS011;7766;51.534;6.722;2022-10-16T06:15:13;5.13;;;1.07;;
15331;SDS011;7766;51.534;6.722;2022-10-16T06:16:14;2.40;;;1.10;;
15331;SDS011;7766;51.534;6.722;2022-10-16T06:17:15;4.43;;;1.10;;
15331;SDS011;7766;51.534;6.722;2022-10-16T06:18:16;3.30;;;1.47;;
15331;SDS011;7766;51.534;6.722;2022-10-16T06:19:17;4.20;;;1.13;;
15331;SDS011;7766;51.534;6.722;2022-10-16T06:20:18;2.40;;;1.03;;
15331;SDS011;7766;51.534;6.722;2022-10-16T06:21:20;1.57;;;1.30;;
15331;SDS011;7766;51.534;6.722;2022-10-16T06:22:24;2.27;;;1.20;;
15331;SDS011;7766;51.534;6.722;2022-10-16T06:23:25;1.70;;;1.10;;
15331;SDS011;7766;51.534;6.722;2022-10-16T06:24:28;1.80;;;1.07;;
15331;SDS011;7766;51.534;6.722;2022-10-16T06:25:30;2.90;;;1.20;;
15331;SDS011;7766;51.534;6.722;2022-10-16T06:26:31;3.57;;;1.23;;
15331;SDS011;7766;51.534;6.722;2022-10-16T06:27:32;1.27;;;1.10;;
15331;SDS011;7766;51.534;6.722;2022-10-16T06:28:33;2.20;;;0.90;;
15331;SDS011;7766;51.534;6.722;2022-10-16T06:29:35;2.60;;;1.23;;
15331;SDS011;7766;51.534;6.722;2022-10-16T06:30:36;5.13;;;1.40;;
15331;SDS011;7766;51.534;6.722;2022-10-16T06:31:37;2.43;;;1.33;;
15331;SDS011;7766;51.534;6.722;2022-10-16T06:32:38;2.60;;;1.90;;
15331;SDS011;7766;51.534;6.722;2022-10-16T06:33:39;1.60;;;1.30;;
15331;SDS011;7766;51.534;6.722;2022-10-16T06:34:41;2.60;;;1.20;;
15331;SDS011;7766;51.534;6.722;2022-10-16T06:35:42;4.50;;;1.20;;